createdAt,value
2018-12-01T00:00:44.577Z,44.35
2018-12-01T00:01:44.573Z,44.26
2018-12-01T00:02:44.552Z,44.06
2018-12-01T00:03:44.550Z,44.16
2018-12-01T00:04:44.552Z,43.96
2018-12-01T00:05:44.518Z,43.96
2018-12-01T00:06:44.509Z,43.96
2018-12-01T00:07:44.498Z,44.26
2018-12-01T00:08:44.486Z,44.06
2018-12-01T00:09:44.494Z,44.06
2018-12-01T00:10:44.459Z,44.06
2018-12-01T00:11:44.459Z,44.16
2018-12-01T00:12:44.439Z,44.06
2018-12-01T00:13:44.441Z,44.16
2018-12-01T00:14:44.450Z,44.26
2018-12-01T00:15:44.417Z,43.96
2018-12-01T00:16:44.398Z,44.16
2018-12-01T00:17:44.399Z,43.96
2018-12-01T00:18:44.395Z,44.06
2018-12-01T00:19:44.401Z,44.26
2018-12-01T00:20:44.365Z,44.26
2018-12-01T00:21:44.358Z,44.06
2018-12-01T00:22:44.330Z,44.16
2018-12-01T00:23:44.326Z,44.26
2018-12-01T00:24:44.347Z,44.16
2018-12-01T00:25:44.294Z,44.04
2018-12-01T00:26:44.296Z,44.16
2018-12-01T00:27:44.304Z,44.06
2018-12-01T00:28:44.275Z,44.35
2018-12-01T00:29:44.268Z,44.16
2018-12-01T00:30:44.256Z,43.84
2018-12-01T00:31:44.241Z,43.76
2018-12-01T00:32:44.234Z,44.46
2018-12-01T00:33:44.246Z,44.13
2018-12-01T00:34:44.216Z,44.34
2018-12-01T00:35:44.217Z,44.34
2018-12-01T00:36:44.197Z,43.85
2018-12-01T00:37:44.185Z,44.35
2018-12-01T00:38:44.176Z,44.24
2018-12-01T00:39:44.157Z,44.34
2018-12-01T00:40:44.159Z,44.13
2018-12-01T00:41:44.126Z,43.93
2018-12-01T00:42:44.128Z,44.34
2018-12-01T00:43:44.106Z,43.96
2018-12-01T00:44:44.106Z,44.24
2018-12-01T00:45:44.094Z,43.85
2018-12-01T00:46:44.064Z,44.34
2018-12-01T00:47:44.069Z,44.35
2018-12-01T00:48:44.041Z,44.35
2018-12-01T00:49:44.043Z,44.35
2018-12-01T00:50:44.056Z,44.16
2018-12-01T00:51:44.012Z,44.04
2018-12-01T00:52:44.000Z,44.16
2018-12-01T00:53:44.007Z,44.13
2018-12-01T00:54:44.003Z,44.06
2018-12-01T00:55:43.989Z,43.85
2018-12-01T00:56:43.958Z,44.34
2018-12-01T00:57:43.943Z,44.16
2018-12-01T00:58:43.936Z,44.26
2018-12-01T00:59:43.923Z,43.85
2018-12-01T01:00:43.954Z,43.85
2018-12-01T01:01:43.912Z,43.85
2018-12-01T01:02:43.886Z,44.16
2018-12-01T01:03:43.885Z,44.16
2018-12-01T01:04:43.874Z,44.26
2018-12-01T01:05:43.885Z,44.16
2018-12-01T01:06:43.854Z,44.06
2018-12-01T01:07:43.896Z,43.85
2018-12-01T01:08:43.890Z,44.16
2018-12-01T01:09:43.816Z,44.06
2018-12-01T01:10:43.824Z,44.16
2018-12-01T01:11:43.807Z,44.26
2018-12-01T01:12:43.785Z,44.06
2018-12-01T01:13:43.799Z,44.13
2018-12-01T01:14:43.754Z,43.85
2018-12-01T01:15:43.765Z,44.16
2018-12-01T01:16:43.759Z,43.85
2018-12-01T01:17:43.728Z,43.93
2018-12-01T01:18:43.722Z,43.96
2018-12-01T01:19:43.704Z,44.06
2018-12-01T01:20:43.709Z,44.35
2018-12-01T01:21:43.693Z,44.16
2018-12-01T01:22:43.674Z,44.06
2018-12-01T01:23:43.670Z,44.26
2018-12-01T01:24:43.670Z,44.16
2018-12-01T01:25:43.661Z,44.26
2018-12-01T01:26:43.643Z,44.06
2018-12-01T01:27:43.621Z,44.16
2018-12-01T01:28:43.613Z,44.06
2018-12-01T01:29:43.599Z,44.16
2018-12-01T01:30:43.598Z,44.26
2018-12-01T01:31:43.605Z,44.16
2018-12-01T01:32:43.568Z,44.16
2018-12-01T01:33:43.552Z,44.06
2018-12-01T01:34:43.545Z,43.76
2018-12-01T01:35:43.543Z,43.96
2018-12-01T01:36:43.541Z,44.26
2018-12-01T01:37:43.504Z,43.96
2018-12-01T01:38:43.495Z,44.46
2018-12-01T01:39:43.505Z,44.26
2018-12-01T01:40:43.477Z,44.06
2018-12-01T01:41:43.479Z,44.26
2018-12-01T01:42:43.467Z,44.16
2018-12-01T01:43:44.206Z,44.06
2018-12-01T01:44:43.437Z,43.96
2018-12-01T01:45:43.416Z,44.06
2018-12-01T01:46:43.437Z,44.06
2018-12-01T01:47:43.411Z,43.96
2018-12-01T01:48:43.410Z,43.96
2018-12-01T01:49:43.380Z,44.06
2018-12-01T01:50:43.371Z,44.06
2018-12-01T01:51:43.402Z,44.06
2018-12-01T01:52:43.347Z,44.26
2018-12-01T01:53:43.348Z,44.26
2018-12-01T01:54:43.347Z,44.16
2018-12-01T01:55:43.319Z,43.96
2018-12-01T01:56:43.369Z,44.26
2018-12-01T01:57:43.294Z,44.26
2018-12-01T01:58:43.294Z,44.26
2018-12-01T01:59:43.286Z,43.96
2018-12-01T02:00:43.272Z,43.96
2018-12-01T02:01:43.265Z,44.06
2018-12-01T02:02:43.241Z,44.16
2018-12-01T02:03:43.240Z,44.26
2018-12-01T02:04:43.221Z,44.16
2018-12-01T02:05:43.208Z,44.35
2018-12-01T02:06:43.224Z,44.35
2018-12-01T02:07:43.183Z,44.26
2018-12-01T02:08:43.165Z,44.04
2018-12-01T02:09:43.157Z,44.26
2018-12-01T02:10:43.148Z,44.46
2018-12-01T02:11:43.158Z,43.76
2018-12-01T02:12:43.128Z,43.96
2018-12-01T02:13:43.130Z,44.06
2018-12-01T02:14:43.117Z,43.76
2018-12-01T02:15:43.103Z,43.76
2018-12-01T02:16:43.106Z,44.34
2018-12-01T02:17:43.080Z,43.85
2018-12-01T02:18:43.064Z,43.76
2018-12-01T02:19:43.056Z,43.74
2018-12-01T02:20:43.051Z,43.96
2018-12-01T02:21:43.065Z,43.85
2018-12-01T02:22:43.029Z,43.74
2018-12-01T02:23:43.026Z,43.76
2018-12-01T02:24:43.000Z,43.93
2018-12-01T02:25:42.990Z,43.76
2018-12-01T02:26:43.021Z,43.66
2018-12-01T02:27:42.975Z,43.74
2018-12-01T02:28:42.963Z,44.35
2018-12-01T02:29:42.941Z,43.96
2018-12-01T02:30:42.949Z,43.66
2018-12-01T02:31:42.950Z,43.96
2018-12-01T02:32:42.926Z,44.06
2018-12-01T02:33:42.908Z,43.76
2018-12-01T02:34:42.912Z,43.85
2018-12-01T02:35:42.886Z,43.76
2018-12-01T02:36:42.867Z,43.96
2018-12-01T02:37:42.875Z,43.96
2018-12-01T02:38:42.854Z,43.93
2018-12-01T02:39:42.838Z,43.76
2018-12-01T02:40:42.832Z,43.76
2018-12-01T02:41:42.849Z,43.66
2018-12-01T02:42:42.841Z,43.93
2018-12-01T02:43:42.798Z,43.85
2018-12-01T02:44:42.771Z,43.66
2018-12-01T02:45:42.771Z,43.55
2018-12-01T02:46:42.755Z,43.66
2018-12-01T02:47:42.756Z,44.13
2018-12-01T02:48:42.740Z,43.76
2018-12-01T02:49:42.720Z,43.66
2018-12-01T02:50:42.719Z,43.84
2018-12-01T02:51:42.706Z,43.76
2018-12-01T02:52:42.713Z,43.74
2018-12-01T02:53:42.690Z,43.66
2018-12-01T02:54:42.667Z,43.76
2018-12-01T02:55:42.657Z,43.76
2018-12-01T02:56:42.678Z,44.35
2018-12-01T02:57:42.653Z,43.85
2018-12-01T02:58:42.622Z,43.76
2018-12-01T02:59:42.613Z,44.26
2018-12-01T03:00:42.600Z,43.74
2018-12-01T03:01:42.591Z,43.85
2018-12-01T03:02:42.619Z,43.63
2018-12-01T03:03:42.587Z,43.66
2018-12-01T03:04:42.581Z,43.76
2018-12-01T03:05:42.550Z,43.84
2018-12-01T03:06:42.540Z,43.84
2018-12-01T03:07:42.542Z,43.74
2018-12-01T03:08:42.520Z,43.76
2018-12-01T03:09:42.505Z,43.85
2018-12-01T03:10:42.490Z,44.46
2018-12-01T03:11:42.488Z,43.76
2018-12-01T03:12:42.508Z,43.85
2018-12-01T03:13:42.462Z,44.43
2018-12-01T03:14:42.453Z,43.84
2018-12-01T03:15:42.437Z,43.66
2018-12-01T03:16:42.442Z,43.74
2018-12-01T03:17:42.432Z,44.74
2018-12-01T03:18:42.417Z,43.74
2018-12-01T03:19:42.400Z,43.85
2018-12-01T03:20:42.392Z,43.76
2018-12-01T03:21:42.366Z,43.76
2018-12-01T03:22:42.376Z,43.76
2018-12-01T03:23:42.342Z,43.76
2018-12-01T03:24:42.334Z,43.74
2018-12-01T03:25:42.328Z,43.74
2018-12-01T03:26:42.320Z,43.76
2018-12-01T03:27:42.351Z,43.74
2018-12-01T03:28:42.291Z,43.66
2018-12-01T03:29:42.287Z,43.74
2018-12-01T03:30:42.290Z,44.46
2018-12-01T03:31:42.266Z,44.35
2018-12-01T03:32:42.264Z,43.66
2018-12-01T03:33:42.254Z,43.66
2018-12-01T03:34:42.225Z,44.35
2018-12-01T03:35:42.219Z,43.85
2018-12-01T03:36:42.206Z,43.74
2018-12-01T03:37:42.189Z,43.96
2018-12-01T03:38:42.202Z,44.24
2018-12-01T03:39:42.176Z,44.66
2018-12-01T03:40:42.167Z,43.66
2018-12-01T03:41:42.164Z,43.93
2018-12-01T03:42:42.136Z,43.76
2018-12-01T03:43:42.142Z,43.76
2018-12-01T03:44:42.114Z,43.76
2018-12-01T03:45:42.107Z,44.35
2018-12-01T03:46:42.094Z,43.96
2018-12-01T03:47:42.099Z,43.84
2018-12-01T03:48:42.085Z,43.76
2018-12-01T03:49:42.059Z,44.16
2018-12-01T03:50:42.058Z,44.16
2018-12-01T03:51:42.035Z,44.26
2018-12-01T03:52:42.032Z,44.24
2018-12-01T03:53:42.031Z,44.26
2018-12-01T03:54:42.002Z,44.26
2018-12-01T03:55:42.011Z,44.26
2018-12-01T03:56:41.989Z,44.26
2018-12-01T03:57:41.977Z,44.26
2018-12-01T03:58:41.977Z,44.26
2018-12-01T03:59:41.963Z,43.96
2018-12-01T04:00:41.940Z,43.96
2018-12-01T04:01:41.927Z,44.04
2018-12-01T04:02:41.928Z,44.06
2018-12-01T04:03:41.920Z,44.16
2018-12-01T04:04:41.905Z,44.06
2018-12-01T04:05:41.889Z,43.96
2018-12-01T04:06:41.873Z,44.04
2018-12-01T04:07:41.882Z,44.16
2018-12-01T04:08:41.881Z,44.35
2018-12-01T04:09:41.850Z,44.16
2018-12-01T04:10:41.842Z,44.16
2018-12-01T04:11:41.826Z,44.16
2018-12-01T04:12:41.817Z,44.35
2018-12-01T04:13:41.818Z,44.16
2018-12-01T04:14:41.785Z,43.96
2018-12-01T04:15:41.776Z,43.85
2018-12-01T04:16:41.763Z,44.16
2018-12-01T04:17:41.759Z,44.26
2018-12-01T04:18:41.766Z,44.16
2018-12-01T04:19:41.769Z,43.96
2018-12-01T04:20:41.728Z,44.16
2018-12-01T04:21:41.709Z,44.06
2018-12-01T04:22:41.719Z,43.93
2018-12-01T04:23:41.727Z,43.96
2018-12-01T04:24:41.677Z,44.06
2018-12-01T04:25:41.666Z,43.96
2018-12-01T04:26:41.660Z,44.16
2018-12-01T04:27:41.644Z,44.26
2018-12-01T04:28:41.643Z,44.26
2018-12-01T04:29:41.650Z,44.16
2018-12-01T04:30:41.626Z,44.16
2018-12-01T04:31:41.606Z,43.96
2018-12-01T04:32:41.599Z,44.04
2018-12-01T04:33:41.586Z,44.26
2018-12-01T04:34:41.589Z,44.04
2018-12-01T04:35:41.562Z,44.06
2018-12-01T04:36:41.554Z,44.34
2018-12-01T04:37:41.534Z,44.16
2018-12-01T04:38:41.529Z,44.26
2018-12-01T04:39:41.528Z,43.96
2018-12-01T04:40:41.502Z,43.93
2018-12-01T04:41:41.493Z,43.96
2018-12-01T04:42:41.478Z,44.06
2018-12-01T04:43:41.468Z,44.06
2018-12-01T04:44:41.476Z,44.16
2018-12-01T04:45:41.451Z,43.96
2018-12-01T04:46:41.450Z,44.04
2018-12-01T04:47:41.450Z,44.26
2018-12-01T04:48:41.430Z,44.16
2018-12-01T04:49:41.422Z,44.16
2018-12-01T04:50:41.398Z,44.16
2018-12-01T04:51:41.391Z,44.26
2018-12-01T04:52:41.380Z,44.16
2018-12-01T04:53:41.437Z,43.96
2018-12-01T04:54:41.387Z,43.96
2018-12-01T04:55:41.342Z,44.16
2018-12-01T04:56:41.332Z,44.06
2018-12-01T04:57:41.334Z,44.26
2018-12-01T04:58:41.321Z,43.96
2018-12-01T04:59:41.314Z,44.16
2018-12-01T05:00:41.314Z,44.16
2018-12-01T05:01:41.282Z,44.04
2018-12-01T05:02:41.280Z,44.16
2018-12-01T05:03:41.276Z,44.24
2018-12-01T05:04:41.271Z,44.26
2018-12-01T05:05:41.253Z,44.26
2018-12-01T05:06:41.251Z,44.35
2018-12-01T05:07:41.218Z,43.96
2018-12-01T05:08:41.222Z,43.96
2018-12-01T05:09:41.222Z,43.96
2018-12-01T05:10:41.188Z,44.35
2018-12-01T05:11:41.165Z,43.96
2018-12-01T05:12:41.203Z,43.96
2018-12-01T05:13:41.144Z,44.06
2018-12-01T05:14:41.148Z,43.93
2018-12-01T05:15:41.157Z,43.96
2018-12-01T05:16:41.122Z,44.16
2018-12-01T05:17:41.098Z,44.26
2018-12-01T05:18:41.095Z,44.04
2018-12-01T05:19:41.102Z,44.26
2018-12-01T05:20:41.106Z,43.93
2018-12-01T05:21:41.070Z,44.26
2018-12-01T05:22:41.057Z,43.96
2018-12-01T05:23:41.039Z,43.96
2018-12-01T05:24:41.041Z,44.16
2018-12-01T05:25:41.017Z,44.26
2018-12-01T05:26:41.283Z,44.26
2018-12-01T05:27:41.016Z,44.46
2018-12-01T05:28:40.999Z,44.35
2018-12-01T05:29:41.001Z,43.85
2018-12-01T05:30:40.968Z,43.85
2018-12-01T05:31:40.955Z,43.76
2018-12-01T05:32:40.954Z,43.76
2018-12-01T05:33:40.944Z,44.13
2018-12-01T05:34:41.241Z,43.76
2018-12-01T05:35:40.909Z,43.96
2018-12-01T05:36:40.904Z,43.76
2018-12-01T05:37:40.887Z,44.16
2018-12-01T05:38:40.875Z,43.96
2018-12-01T05:39:40.877Z,43.74
2018-12-01T05:40:40.872Z,43.85
2018-12-01T05:41:40.854Z,44.35
2018-12-01T05:42:40.829Z,44.35
2018-12-01T05:43:40.821Z,44.35
2018-12-01T05:44:40.810Z,43.76
2018-12-01T05:45:40.813Z,43.76
2018-12-01T05:46:40.789Z,43.76
2018-12-01T05:47:40.785Z,43.76
2018-12-01T05:48:40.776Z,43.76
2018-12-01T05:49:40.756Z,43.66
2018-12-01T05:50:40.752Z,43.85
2018-12-01T05:51:40.742Z,43.55
2018-12-01T05:52:40.725Z,44.76
2018-12-01T05:53:40.812Z,44.66
2018-12-01T05:54:40.705Z,44.76
2018-12-01T05:55:40.739Z,44.86
2018-12-01T05:56:40.696Z,44.76
2018-12-01T05:57:40.675Z,44.56
2018-12-01T05:58:40.650Z,44.58
2018-12-01T05:59:40.640Z,44.96
2018-12-01T06:00:40.675Z,44.48
2018-12-01T06:01:40.614Z,44.46
2018-12-01T06:02:40.619Z,44.48
2018-12-01T06:03:40.614Z,44.08
2018-12-01T06:04:40.592Z,44.28
2018-12-01T06:05:40.630Z,44.26
2018-12-01T06:06:40.581Z,44.28
2018-12-01T06:07:40.572Z,44.88
2018-12-01T06:08:40.543Z,44.28
2018-12-01T06:09:40.543Z,44.98
2018-12-01T06:10:40.531Z,44.98
2018-12-01T06:11:40.518Z,44.98
2018-12-01T06:12:40.508Z,44.28
2018-12-01T06:13:40.501Z,45.08
2018-12-01T06:14:40.493Z,44.68
2018-12-01T06:15:40.494Z,44.68
2018-12-01T06:16:40.454Z,44.26
2018-12-01T06:17:40.500Z,44.18
2018-12-01T06:18:40.443Z,44.68
2018-12-01T06:19:40.424Z,44.16
2018-12-01T06:20:40.430Z,45.28
2018-12-01T06:21:40.422Z,44.35
2018-12-01T06:22:40.438Z,44.35
2018-12-01T06:23:40.382Z,44.46
2018-12-01T06:24:40.393Z,44.76
2018-12-01T06:25:40.370Z,44.35
2018-12-01T06:26:40.360Z,43.76
2018-12-01T06:27:40.731Z,43.74
2018-12-01T06:28:40.324Z,44.35
2018-12-01T06:29:40.319Z,43.85
2018-12-01T06:30:40.324Z,44.93
2018-12-01T06:31:40.289Z,43.76
2018-12-01T06:32:40.278Z,44.43
2018-12-01T06:33:40.269Z,44.34
2018-12-01T06:34:40.270Z,44.24
2018-12-01T06:35:40.285Z,44.13
2018-12-01T06:36:40.254Z,44.04
2018-12-01T06:37:40.235Z,43.93
2018-12-01T06:38:40.216Z,44.04
2018-12-01T06:39:40.198Z,43.93
2018-12-01T06:40:40.207Z,43.93
2018-12-01T06:41:40.185Z,44.13
2018-12-01T06:42:40.185Z,44.04
2018-12-01T06:43:40.171Z,43.93
2018-12-01T06:44:40.148Z,44.24
2018-12-01T06:45:40.254Z,43.74
2018-12-01T06:46:40.144Z,43.74
2018-12-01T06:47:40.115Z,44.84
2018-12-01T06:48:40.100Z,45.04
2018-12-01T06:49:40.100Z,45.14
2018-12-01T06:50:40.181Z,45.94
2018-12-01T06:51:40.179Z,46.34
2018-12-01T06:52:40.081Z,46.54
2018-12-01T06:53:40.118Z,45.04
2018-12-01T06:54:41.025Z,45.84
2018-12-01T06:55:40.058Z,45.43
2018-12-01T06:56:40.096Z,45.84
2018-12-01T06:57:40.012Z,45.14
2018-12-01T06:58:39.989Z,45.54
2018-12-01T06:59:39.980Z,45.64
2018-12-01T07:00:39.983Z,45.34
2018-12-01T07:01:41.141Z,45.34
2018-12-01T07:02:40.462Z,45.84
2018-12-01T07:03:40.217Z,45.43
2018-12-01T07:04:45.026Z,45.54
2018-12-01T07:05:39.942Z,45.24
2018-12-01T07:06:40.210Z,45.34
2018-12-01T07:07:40.069Z,45.14
2018-12-01T07:08:39.920Z,45.24
2018-12-01T07:09:39.907Z,45.04
2018-12-01T07:10:39.876Z,45.14
2018-12-01T07:11:39.890Z,45.14
2018-12-01T07:12:39.847Z,45.21
2018-12-01T07:13:39.828Z,45.24
2018-12-01T07:14:39.854Z,45.24
2018-12-01T07:15:39.804Z,45.12
2018-12-01T07:16:40.860Z,45.24
2018-12-01T07:17:39.785Z,45.24
2018-12-01T07:18:40.508Z,45.43
2018-12-01T07:19:39.939Z,45.14
2018-12-01T07:20:39.989Z,45.24
2018-12-01T07:21:41.235Z,45.24
2018-12-01T07:22:39.733Z,45.04
2018-12-01T07:23:40.071Z,45.14
2018-12-01T07:24:40.235Z,45.24
2018-12-01T07:25:39.698Z,45.84
2018-12-01T07:26:39.702Z,45.62
2018-12-01T07:27:39.708Z,45.34
2018-12-01T07:28:39.791Z,46.64
2018-12-01T07:29:39.657Z,46.62
2018-12-01T07:30:40.420Z,46.42
2018-12-01T07:31:40.137Z,46.42
2018-12-01T07:32:39.624Z,46.62
2018-12-01T07:33:47.192Z,46.92
2018-12-01T07:34:40.729Z,46.62
2018-12-01T07:35:39.587Z,46.62
2018-12-01T07:36:39.598Z,46.22
2018-12-01T07:37:39.615Z,46.51
2018-12-01T07:38:39.560Z,47.11
2018-12-01T07:39:39.546Z,46.84
2018-12-01T07:40:39.533Z,47.02
2018-12-01T07:41:39.537Z,47.22
2018-12-01T07:42:39.511Z,47.22
2018-12-01T07:43:39.953Z,46.72
2018-12-01T07:44:42.471Z,47.31
2018-12-01T07:45:39.481Z,47.42
2018-12-01T07:46:39.485Z,47.52
2018-12-01T07:47:39.465Z,47.02
2018-12-01T07:48:39.450Z,47.61
2018-12-01T07:49:39.443Z,47.52
2018-12-01T07:50:39.425Z,48.42
2018-12-01T07:51:39.450Z,48.42
2018-12-01T07:52:39.406Z,48.52
2018-12-01T07:53:39.401Z,48.60
2018-12-01T07:54:39.390Z,48.22
2018-12-01T07:55:39.372Z,48.79
2018-12-01T07:56:39.361Z,49.11
2018-12-01T07:57:39.368Z,48.42
2018-12-01T07:58:39.370Z,49.09
2018-12-01T07:59:39.347Z,49.22
2018-12-01T08:00:43.549Z,49.52
2018-12-01T08:01:41.650Z,45.72
2018-12-01T08:02:39.311Z,43.79
2018-12-01T08:03:39.367Z,45.00
2018-12-01T08:04:39.291Z,45.92
2018-12-01T08:05:39.290Z,46.31
2018-12-01T08:06:39.257Z,46.72
2018-12-01T08:07:40.909Z,46.12
2018-12-01T08:08:39.233Z,46.01
2018-12-01T08:09:39.247Z,46.51
2018-12-01T08:10:39.210Z,46.62
2018-12-01T08:11:39.204Z,46.92
2018-12-01T08:12:39.207Z,46.72
2018-12-01T08:13:39.328Z,47.31
2018-12-01T08:14:39.272Z,47.11
2018-12-01T08:15:39.174Z,47.72
2018-12-01T08:16:39.200Z,47.31
2018-12-01T08:17:39.155Z,47.42
2018-12-01T08:18:39.128Z,47.42
2018-12-01T08:19:39.155Z,47.52
2018-12-01T08:20:39.108Z,47.31
2018-12-01T08:21:39.128Z,47.31
2018-12-01T08:22:39.113Z,47.31
2018-12-01T08:23:39.078Z,47.31
2018-12-01T08:24:39.067Z,48.11
2018-12-01T08:25:39.082Z,48.32
2018-12-01T08:26:39.057Z,48.52
2018-12-01T08:27:39.055Z,48.22
2018-12-01T08:28:39.036Z,48.52
2018-12-01T08:29:39.044Z,48.52
2018-12-01T08:30:39.006Z,48.22
2018-12-01T08:31:38.997Z,48.82
2018-12-01T08:32:38.996Z,48.52
2018-12-01T08:33:38.962Z,48.42
2018-12-01T08:34:39.407Z,48.99
2018-12-01T08:35:39.522Z,48.42
2018-12-01T08:36:38.931Z,48.60
2018-12-01T08:37:38.934Z,48.39
2018-12-01T08:38:38.956Z,48.29
2018-12-01T08:39:38.908Z,48.29
2018-12-01T08:40:38.929Z,48.49
2018-12-01T08:41:38.879Z,48.49
2018-12-01T08:42:38.912Z,48.60
2018-12-01T08:43:38.858Z,48.11
2018-12-01T08:44:38.849Z,48.39
2018-12-01T08:45:38.844Z,48.49
2018-12-01T08:46:38.825Z,48.19
2018-12-01T08:47:38.834Z,48.19
2018-12-01T08:48:38.809Z,48.39
2018-12-01T08:49:38.794Z,48.90
2018-12-01T08:50:38.803Z,48.19
2018-12-01T08:51:38.772Z,47.39
2018-12-01T08:52:38.775Z,47.09
2018-12-01T08:53:38.757Z,47.39
2018-12-01T08:54:38.739Z,47.47
2018-12-01T08:55:38.729Z,47.27
2018-12-01T08:56:38.740Z,47.37
2018-12-01T08:57:38.727Z,47.17
2018-12-01T08:58:38.712Z,46.87
2018-12-01T08:59:38.692Z,46.57
2018-12-01T09:00:38.681Z,46.57
2018-12-01T09:01:38.664Z,47.37
2018-12-01T09:02:38.691Z,46.87
2018-12-01T09:03:38.651Z,46.37
2018-12-01T09:04:38.633Z,46.57
2018-12-01T09:05:38.634Z,46.65
2018-12-01T09:06:38.612Z,45.97
2018-12-01T09:07:38.603Z,46.37
2018-12-01T09:08:38.609Z,46.27
2018-12-01T09:09:38.587Z,46.37
2018-12-01T09:10:38.570Z,46.35
2018-12-01T09:11:38.558Z,46.47
2018-12-01T09:12:38.577Z,46.37
2018-12-01T09:13:38.583Z,46.57
2018-12-01T09:14:38.847Z,46.45
2018-12-01T09:15:38.749Z,46.35
2018-12-01T09:16:38.507Z,46.27
2018-12-01T09:17:39.021Z,46.45
2018-12-01T09:18:38.506Z,46.27
2018-12-01T09:19:38.478Z,46.47
2018-12-01T09:20:38.465Z,46.55
2018-12-01T09:21:38.463Z,46.47
2018-12-01T09:22:38.449Z,45.87
2018-12-01T09:23:38.452Z,46.15
2018-12-01T09:24:38.427Z,45.85
2018-12-01T09:25:38.414Z,45.85
2018-12-01T09:26:38.402Z,45.97
2018-12-01T09:27:38.396Z,46.15
2018-12-01T09:28:38.399Z,45.05
2018-12-01T09:29:38.366Z,45.75
2018-12-01T09:30:38.360Z,45.77
2018-12-01T09:31:38.346Z,45.05
2018-12-01T09:32:38.335Z,45.25
2018-12-01T09:33:38.354Z,45.15
2018-12-01T09:34:38.318Z,45.65
2018-12-01T09:35:38.303Z,45.17
2018-12-01T09:36:38.295Z,44.97
2018-12-01T09:37:38.315Z,44.65
2018-12-01T09:38:38.324Z,43.85
2018-12-01T09:39:38.266Z,44.35
2018-12-01T09:40:38.284Z,44.67
2018-12-01T09:41:38.260Z,43.57
2018-12-01T09:42:38.314Z,43.67
2018-12-01T09:43:38.249Z,43.85
2018-12-01T09:44:38.208Z,43.67
2018-12-01T09:45:38.219Z,43.67
2018-12-01T09:46:38.187Z,44.15
2018-12-01T09:47:38.286Z,44.17
2018-12-01T09:48:38.550Z,44.27
2018-12-01T09:49:38.164Z,44.17
2018-12-01T09:50:38.148Z,44.15
2018-12-01T09:51:38.135Z,43.95
2018-12-01T09:52:38.132Z,44.05
2018-12-01T09:53:38.137Z,44.05
2018-12-01T09:54:38.101Z,44.05
2018-12-01T09:55:38.109Z,43.95
2018-12-01T09:56:38.087Z,43.85
2018-12-01T09:57:38.082Z,43.95
2018-12-01T09:58:38.555Z,44.15
2018-12-01T09:59:38.048Z,43.85
2018-12-01T10:00:38.101Z,44.37
2018-12-01T10:01:38.063Z,43.65
2018-12-01T10:02:38.016Z,44.15
2018-12-01T10:03:38.070Z,44.15
2018-12-01T10:04:38.004Z,44.35
2018-12-01T10:05:38.063Z,44.15
2018-12-01T10:06:37.974Z,43.65
2018-12-01T10:07:37.974Z,44.65
2018-12-01T10:08:37.972Z,44.65
2018-12-01T10:09:37.955Z,44.85
2018-12-01T10:10:37.931Z,43.65
2018-12-01T10:11:38.253Z,44.65
2018-12-01T10:12:38.663Z,43.85
2018-12-01T10:13:37.918Z,43.75
2018-12-01T10:14:37.927Z,44.53
2018-12-01T10:15:37.878Z,44.13
2018-12-01T10:16:37.907Z,44.03
2018-12-01T10:17:39.313Z,44.93
2018-12-01T10:18:37.868Z,44.13
2018-12-01T10:19:37.837Z,44.83
2018-12-01T10:20:38.728Z,44.13
2018-12-01T10:21:37.814Z,44.73
2018-12-01T10:22:37.823Z,44.83
2018-12-01T10:23:37.876Z,44.73
2018-12-01T10:24:37.792Z,44.93
2018-12-01T10:25:37.782Z,44.13
2018-12-01T10:26:37.871Z,44.13
2018-12-01T10:27:37.775Z,44.71
2018-12-01T10:28:37.800Z,44.61
2018-12-01T10:29:37.728Z,44.91
2018-12-01T10:30:37.723Z,45.01
2018-12-01T10:31:42.366Z,44.11
2018-12-01T10:32:37.709Z,44.11
2018-12-01T10:33:37.684Z,44.63
2018-12-01T10:34:37.691Z,44.21
2018-12-01T10:35:37.675Z,44.91
2018-12-01T10:36:37.653Z,44.81
2018-12-01T10:37:37.645Z,44.89
2018-12-01T10:38:37.639Z,44.11
2018-12-01T10:39:40.408Z,44.69
2018-12-01T10:40:37.606Z,44.38
2018-12-01T10:41:37.594Z,43.69
2018-12-01T10:42:40.051Z,44.09
2018-12-01T10:43:38.298Z,43.59
2018-12-01T10:44:37.589Z,44.07
2018-12-01T10:45:37.556Z,44.07
2018-12-01T10:46:37.546Z,43.87
2018-12-01T10:47:37.631Z,43.87
2018-12-01T10:48:38.333Z,43.57
2018-12-01T10:49:37.576Z,44.27
2018-12-01T10:50:37.502Z,43.75
2018-12-01T10:51:37.491Z,43.35
2018-12-01T10:52:37.474Z,43.15
2018-12-01T10:53:37.465Z,43.45
2018-12-01T10:54:37.481Z,42.85
2018-12-01T10:55:37.452Z,42.65
2018-12-01T10:56:37.431Z,42.93
2018-12-01T10:57:37.812Z,43.35
2018-12-01T10:58:37.412Z,44.27
2018-12-01T10:59:37.420Z,43.67
2018-12-01T11:00:37.408Z,43.67
2018-12-01T11:01:37.393Z,43.97
2018-12-01T11:02:37.366Z,43.77
2018-12-01T11:03:37.357Z,43.97
2018-12-01T11:04:37.360Z,44.46
2018-12-01T11:05:37.349Z,44.76
2018-12-01T11:06:37.338Z,43.77
2018-12-01T11:07:37.367Z,44.27
2018-12-01T11:08:37.340Z,44.05
2018-12-01T11:09:37.318Z,43.73
2018-12-01T11:10:37.292Z,44.12
2018-12-01T11:11:37.301Z,43.52
2018-12-01T11:12:37.276Z,43.71
2018-12-01T11:13:37.263Z,43.60
2018-12-01T11:14:37.285Z,43.41
2018-12-01T11:15:37.234Z,43.71
2018-12-01T11:16:37.215Z,43.63
2018-12-01T11:17:37.218Z,43.71
2018-12-01T11:18:37.195Z,43.08
2018-12-01T11:19:37.218Z,42.59
2018-12-01T11:20:37.189Z,42.69
2018-12-01T11:21:37.169Z,42.27
2018-12-01T11:22:37.154Z,42.67
2018-12-01T11:23:37.151Z,42.65
2018-12-01T11:24:37.136Z,42.15
2018-12-01T11:25:37.144Z,41.66
2018-12-01T11:26:37.107Z,41.36
2018-12-01T11:27:37.101Z,40.84
2018-12-01T11:28:37.086Z,41.04
2018-12-01T11:29:37.086Z,41.31
2018-12-01T11:30:37.097Z,41.12
2018-12-01T11:31:37.074Z,41.42
2018-12-01T11:32:37.043Z,40.70
2018-12-01T11:33:37.061Z,40.70
2018-12-01T11:34:37.082Z,40.41
2018-12-01T11:35:37.037Z,39.89
2018-12-01T11:36:36.990Z,39.79
2018-12-01T11:37:36.998Z,39.79
2018-12-01T11:38:36.968Z,39.79
2018-12-01T11:39:36.963Z,39.29
2018-12-01T11:40:36.971Z,39.39
2018-12-01T11:41:36.959Z,39.61
2018-12-01T11:42:37.249Z,40.12
2018-12-01T11:43:36.913Z,40.64
2018-12-01T11:44:36.908Z,40.94
2018-12-01T11:45:36.922Z,41.36
2018-12-01T11:46:36.885Z,41.46
2018-12-01T11:47:36.879Z,41.46
2018-12-01T11:48:36.886Z,41.67
2018-12-01T11:49:36.846Z,41.87
2018-12-01T11:50:36.851Z,41.87
2018-12-01T11:51:36.832Z,41.28
2018-12-01T11:52:36.817Z,41.38
2018-12-01T11:53:36.819Z,41.77
2018-12-01T11:54:36.793Z,42.37
2018-12-01T11:55:38.107Z,42.39
2018-12-01T11:56:36.770Z,42.69
2018-12-01T11:57:36.760Z,42.79
2018-12-01T11:58:37.088Z,42.49
2018-12-01T11:59:36.736Z,42.41
2018-12-01T12:00:36.742Z,42.41
2018-12-01T12:01:36.715Z,42.61
2018-12-01T12:02:36.703Z,42.51
2018-12-01T12:03:36.699Z,42.61
2018-12-01T12:04:36.716Z,42.91
2018-12-01T12:05:36.707Z,42.31
2018-12-01T12:06:36.658Z,42.91
2018-12-01T12:07:37.490Z,42.91
2018-12-01T12:08:36.635Z,42.61
2018-12-01T12:09:36.628Z,43.01
2018-12-01T12:10:36.627Z,43.01
2018-12-01T12:11:36.639Z,43.01
2018-12-01T12:12:37.027Z,42.51
2018-12-01T12:13:36.580Z,42.31
2018-12-01T12:14:36.571Z,41.97
2018-12-01T12:15:36.557Z,41.46
2018-12-01T12:16:36.598Z,40.52
2018-12-01T12:17:39.909Z,39.51
2018-12-01T12:18:38.457Z,39.98
2018-12-01T12:19:36.759Z,39.07
2018-12-01T12:20:36.504Z,39.15
2018-12-01T12:21:37.094Z,38.78
2018-12-01T12:22:39.542Z,38.78
2018-12-01T12:23:36.466Z,38.58
2018-12-01T12:24:36.464Z,38.58
2018-12-01T12:25:36.442Z,38.64
2018-12-01T12:26:36.446Z,37.73
2018-12-01T12:27:36.423Z,37.41
2018-12-01T12:28:36.445Z,37.41
2018-12-01T12:29:36.403Z,36.98
2018-12-01T12:30:36.389Z,36.18
2018-12-01T12:31:36.392Z,36.61
2018-12-01T12:32:36.375Z,36.59
2018-12-01T12:33:36.375Z,36.69
2018-12-01T12:34:36.344Z,36.51
2018-12-01T12:35:36.335Z,37.22
2018-12-01T12:36:36.336Z,37.95
2018-12-01T12:37:38.473Z,38.46
2018-12-01T12:38:36.320Z,38.68
2018-12-01T12:39:36.292Z,39.09
2018-12-01T12:40:36.278Z,38.71
2018-12-01T12:41:36.293Z,39.11
2018-12-01T12:42:36.277Z,40.12
2018-12-01T12:43:36.257Z,39.63
2018-12-01T12:44:36.234Z,39.75
2018-12-01T12:45:36.255Z,40.24
2018-12-01T12:46:36.490Z,39.95
2018-12-01T12:47:36.353Z,40.16
2018-12-01T12:48:36.205Z,40.96
2018-12-01T12:49:36.180Z,40.76
2018-12-01T12:50:36.169Z,41.08
2018-12-01T12:51:36.249Z,41.28
2018-12-01T12:52:36.262Z,41.00